sensor_id;sensor_type;location;lat;lon;timestamp;pressure;altitude;pressure_sealevel;temperature;humidity
84924;BME280;75286;52.218;5.180;2024-03-07T00:02:13;102700.09;;;5.38;96.89
84924;BME280;75286;52.218;5.180;2024-03-07T00:04:38;102705.31;;;5.37;96.81
84924;BME280;75286;52.218;5.180;2024-03-07T00:07:04;102704.09;;;5.30;96.94
84924;BME280;75286;52.218;5.180;2024-03-07T00:09:33;102711.91;;;5.28;96.85
84924;BME280;75286;52.218;5.180;2024-03-07T00:12:00;102705.44;;;5.23;97.11
84924;BME280;75286;52.218;5.180;2024-03-07T00:14:25;102712.22;;;5.24;97.48
84924;BME280;75286;52.218;5.180;2024-03-07T00:16:56;102714.66;;;5.25;97.60
84924;BME280;75286;52.218;5.180;2024-03-07T00:19:22;102707.09;;;5.24;97.52
84924;BME280;75286;52.218;5.180;2024-03-07T00:21:58;102706.34;;;5.22;97.36
84924;BME280;75286;52.218;5.180;2024-03-07T00:24:23;102700.41;;;5.21;97.37
84924;BME280;75286;52.218;5.180;2024-03-07T00:26:49;102701.31;;;5.20;97.28
84924;BME280;75286;52.218;5.180;2024-03-07T00:29:16;102694.13;;;5.13;97.31
84924;BME280;75286;52.218;5.180;2024-03-07T00:31:44;102705.94;;;5.15;97.42
84924;BME280;75286;52.218;5.180;2024-03-07T00:34:09;102701.72;;;5.14;97.89
84924;BME280;75286;52.218;5.180;2024-03-07T00:36:35;102700.00;;;5.15;97.80
84924;BME280;75286;52.218;5.180;2024-03-07T00:39:00;102699.06;;;5.16;97.77
84924;BME280;75286;52.218;5.180;2024-03-07T00:41:26;102697.63;;;5.12;97.88
84924;BME280;75286;52.218;5.180;2024-03-07T00:43:51;102702.84;;;5.10;97.65
84924;BME280;75286;52.218;5.180;2024-03-07T00:46:16;102701.13;;;5.11;97.12
84924;BME280;75286;52.218;5.180;2024-03-07T00:48:42;102704.69;;;5.08;97.20
84924;BME280;75286;52.218;5.180;2024-03-07T00:51:07;102694.66;;;5.05;96.83
84924;BME280;75286;52.218;5.180;2024-03-07T00:53:34;102699.16;;;5.02;97.85
84924;BME280;75286;52.218;5.180;2024-03-07T00:55:59;102695.88;;;5.00;97.62
84924;BME280;75286;52.218;5.180;2024-03-07T00:58:25;102697.63;;;4.99;97.14
84924;BME280;75286;52.218;5.180;2024-03-07T01:00:50;102702.75;;;4.99;97.32
84924;BME280;75286;52.218;5.180;2024-03-07T01:03:15;102698.13;;;4.91;97.50
84924;BME280;75286;52.218;5.180;2024-03-07T01:05:43;102697.19;;;4.92;97.32
84924;BME280;75286;52.218;5.180;2024-03-07T01:08:08;102697.41;;;4.89;97.57
84924;BME280;75286;52.218;5.180;2024-03-07T01:10:33;102702.53;;;4.89;97.45
84924;BME280;75286;52.218;5.180;2024-03-07T01:12:59;102692.69;;;4.83;97.63
84924;BME280;75286;52.218;5.180;2024-03-07T01:15:29;102689.47;;;4.80;97.53
84924;BME280;75286;52.218;5.180;2024-03-07T01:17:55;102701.16;;;4.84;98.24
84924;BME280;75286;52.218;5.180;2024-03-07T01:20:21;102693.47;;;4.84;98.33
84924;BME280;75286;52.218;5.180;2024-03-07T01:22:46;102688.78;;;4.78;97.91
84924;BME280;75286;52.218;5.180;2024-03-07T01:25:12;102698.72;;;4.82;98.20
84924;BME280;75286;52.218;5.180;2024-03-07T01:27:38;102686.09;;;4.79;97.75
84924;BME280;75286;52.218;5.180;2024-03-07T01:30:04;102693.59;;;4.82;98.07
84924;BME280;75286;52.218;5.180;2024-03-07T01:32:33;102690.31;;;4.80;97.84
84924;BME280;75286;52.218;5.180;2024-03-07T01:34:58;102687.75;;;4.80;98.22
84924;BME280;75286;52.218;5.180;2024-03-07T01:37:24;102686.31;;;4.76;97.81
84924;BME280;75286;52.218;5.180;2024-03-07T01:39:49;102679.53;;;4.75;97.91
84924;BME280;75286;52.218;5.180;2024-03-07T01:42:14;102682.28;;;4.72;97.99
84924;BME280;75286;52.218;5.180;2024-03-07T01:44:40;102679.94;;;4.69;97.99
84924;BME280;75286;52.218;5.180;2024-03-07T01:47:07;102681.69;;;4.69;97.76
84924;BME280;75286;52.218;5.180;2024-03-07T01:49:32;102674.28;;;4.64;98.20
84924;BME280;75286;52.218;5.180;2024-03-07T01:51:58;102681.75;;;4.67;97.92
84924;BME280;75286;52.218;5.180;2024-03-07T01:54:25;102677.69;;;4.65;97.85
84924;BME280;75286;52.218;5.180;2024-03-07T01:56:51;102662.88;;;4.55;97.74
84924;BME280;75286;52.218;5.180;2024-03-07T01:59:17;102676.34;;;4.59;97.54
84924;BME280;75286;52.218;5.180;2024-03-07T02:01:46;102670.69;;;4.54;98.02
84924;BME280;75286;52.218;5.180;2024-03-07T02:04:12;102678.25;;;4.55;98.05
84924;BME280;75286;52.218;5.180;2024-03-07T02:06:37;102668.53;;;4.48;98.24
84924;BME280;75286;52.218;5.180;2024-03-07T02:09:03;102674.16;;;4.53;97.94
84924;BME280;75286;52.218;5.180;2024-03-07T02:11:31;102671.78;;;4.50;97.80
84924;BME280;75286;52.218;5.180;2024-03-07T02:13:56;102676.09;;;4.49;98.11
84924;BME280;75286;52.218;5.180;2024-03-07T02:16:21;102672.00;;;4.47;97.99
84924;BME280;75286;52.218;5.180;2024-03-07T02:18:48;102665.53;;;4.41;97.60
84924;BME280;75286;52.218;5.180;2024-03-07T02:21:14;102654.84;;;4.35;98.33
84924;BME280;75286;52.218;5.180;2024-03-07T02:23:39;102669.09;;;4.39;98.27
84924;BME280;75286;52.218;5.180;2024-03-07T02:26:06;102665.09;;;4.35;98.40
84924;BME280;75286;52.218;5.180;2024-03-07T02:28:31;102670.22;;;4.35;98.59
84924;BME280;75286;52.218;5.180;2024-03-07T02:30:57;102677.16;;;4.33;99.10
84924;BME280;75286;52.218;5.180;2024-03-07T02:33:22;102673.78;;;4.32;98.92
84924;BME280;75286;52.218;5.180;2024-03-07T02:35:48;102667.94;;;4.30;99.41
84924;BME280;75286;52.218;5.180;2024-03-07T02:38:14;102664.34;;;4.33;99.91
84924;BME280;75286;52.218;5.180;2024-03-07T02:40:39;102666.91;;;4.33;99.94
84924;BME280;75286;52.218;5.180;2024-03-07T02:43:05;102676.97;;;4.36;100.00
84924;BME280;75286;52.218;5.180;2024-03-07T02:45:30;102665.81;;;4.37;100.00
84924;BME280;75286;52.218;5.180;2024-03-07T02:47:56;102666.66;;;4.37;99.51
84924;BME280;75286;52.218;5.180;2024-03-07T02:50:22;102661.41;;;4.39;99.68
84924;BME280;75286;52.218;5.180;2024-03-07T02:52:48;102652.28;;;4.35;100.00
84924;BME280;75286;52.218;5.180;2024-03-07T02:55:15;102655.47;;;4.38;100.00
84924;BME280;75286;52.218;5.180;2024-03-07T02:57:40;102658.44;;;4.45;100.00
84924;BME280;75286;52.218;5.180;2024-03-07T03:00:06;102649.94;;;4.44;100.00
84924;BME280;75286;52.218;5.180;2024-03-07T03:02:45;102650.47;;;4.49;100.00
84924;BME280;75286;52.218;5.180;2024-03-07T03:05:10;102647.81;;;4.51;100.00
84924;BME280;75286;52.218;5.180;2024-03-07T03:07:36;102641.03;;;4.50;100.00
84924;BME280;75286;52.218;5.180;2024-03-07T03:10:02;102640.34;;;4.48;100.00
84924;BME280;75286;52.218;5.180;2024-03-07T03:12:32;102632.75;;;4.46;100.00
84924;BME280;75286;52.218;5.180;2024-03-07T03:14:57;102635.00;;;4.51;100.00
84924;BME280;75286;52.218;5.180;2024-03-07T03:17:23;102628.44;;;4.47;100.00
84924;BME280;75286;52.218;5.180;2024-03-07T03:19:48;102626.81;;;4.46;100.00
84924;BME280;75286;52.218;5.180;2024-03-07T03:22:15;102622.06;;;4.40;100.00
84924;BME280;75286;52.218;5.180;2024-03-07T03:24:40;102630.66;;;4.39;100.00
84924;BME280;75286;52.218;5.180;2024-03-07T03:27:09;102633.22;;;4.39;100.00
84924;BME280;75286;52.218;5.180;2024-03-07T03:29:35;102631.78;;;4.35;100.00
84924;BME280;75286;52.218;5.180;2024-03-07T03:32:01;102629.97;;;4.37;100.00
84924;BME280;75286;52.218;5.180;2024-03-07T03:34:26;102639.38;;;4.36;99.95
84924;BME280;75286;52.218;5.180;2024-03-07T03:36:52;102625.13;;;4.32;100.00
84924;BME280;75286;52.218;5.180;2024-03-07T03:39:17;102627.59;;;4.34;99.89
84924;BME280;75286;52.218;5.180;2024-03-07T03:41:46;102622.84;;;4.28;99.69
84924;BME280;75286;52.218;5.180;2024-03-07T03:44:11;102612.72;;;4.26;99.78
84924;BME280;75286;52.218;5.180;2024-03-07T03:46:36;102612.09;;;4.23;99.21
84924;BME280;75286;52.218;5.180;2024-03-07T03:49:02;102613.00;;;4.22;99.41
84924;BME280;75286;52.218;5.180;2024-03-07T03:51:27;102622.53;;;4.20;99.78
84924;BME280;75286;52.218;5.180;2024-03-07T03:53:53;102620.97;;;4.17;100.00
84924;BME280;75286;52.218;5.180;2024-03-07T03:56:18;102617.00;;;4.13;99.70
84924;BME280;75286;52.218;5.180;2024-03-07T03:58:44;102609.59;;;4.08;100.00
84924;BME280;75286;52.218;5.180;2024-03-07T04:01:09;102621.59;;;4.08;99.85
84924;BME280;75286;52.218;5.180;2024-03-07T04:03:38;102621.47;;;4.09;99.91
84924;BME280;75286;52.218;5.180;2024-03-07T04:06:04;102607.13;;;4.07;100.00
84924;BME280;75286;52.218;5.180;2024-03-07T04:08:30;102613.91;;;4.08;100.00
84924;BME280;75286;52.218;5.180;2024-03-07T04:10:55;102602.41;;;4.01;99.71
84924;BME280;75286;52.218;5.180;2024-03-07T04:13:20;102610.00;;;4.02;99.82
84924;BME280;75286;52.218;5.180;2024-03-07T04:15:47;102605.50;;;4.06;100.00
84924;BME280;75286;52.218;5.180;2024-03-07T04:18:13;102610.69;;;4.04;100.00
84924;BME280;75286;52.218;5.180;2024-03-07T04:20:38;102612.44;;;4.04;100.00
84924;BME280;75286;52.218;5.180;2024-03-07T04:23:05;102613.16;;;4.06;100.00
84924;BME280;75286;52.218;5.180;2024-03-07T04:25:31;102604.13;;;4.00;100.00
84924;BME280;75286;52.218;5.180;2024-03-07T04:27:58;102611.81;;;4.00;100.00
84924;BME280;75286;52.218;5.180;2024-03-07T04:30:24;102612.63;;;4.01;100.00
84924;BME280;75286;52.218;5.180;2024-03-07T04:32:49;102603.41;;;3.98;100.00
84924;BME280;75286;52.218;5.180;2024-03-07T04:35:14;102610.91;;;4.01;100.00
84924;BME280;75286;52.218;5.180;2024-03-07T04:37:41;102616.94;;;4.00;100.00
84924;BME280;75286;52.218;5.180;2024-03-07T04:40:08;102610.16;;;3.99;100.00
84924;BME280;75286;52.218;5.180;2024-03-07T04:42:45;102602.97;;;3.92;100.00
84924;BME280;75286;52.218;5.180;2024-03-07T04:45:11;102616.94;;;4.00;100.00
84924;BME280;75286;52.218;5.180;2024-03-07T04:47:41;102614.28;;;4.02;100.00
84924;BME280;75286;52.218;5.180;2024-03-07T04:50:08;102618.59;;;4.01;100.00
84924;BME280;75286;52.218;5.180;2024-03-07T04:52:39;102611.28;;;3.95;100.00
84924;BME280;75286;52.218;5.180;2024-03-07T04:55:06;102611.28;;;3.95;99.91
84924;BME280;75286;52.218;5.180;2024-03-07T04:57:37;102613.94;;;3.94;100.00
84924;BME280;75286;52.218;5.180;2024-03-07T05:00:09;102605.53;;;3.92;100.00
84924;BME280;75286;52.218;5.180;2024-03-07T05:02:45;102607.16;;;3.93;100.00
84924;BME280;75286;52.218;5.180;2024-03-07T05:05:10;102604.81;;;3.90;99.98
84924;BME280;75286;52.218;5.180;2024-03-07T05:07:36;102608.09;;;3.92;100.00
84924;BME280;75286;52.218;5.180;2024-03-07T05:10:03;102605.72;;;3.89;99.88
84924;BME280;75286;52.218;5.180;2024-03-07T05:12:30;102612.50;;;3.90;100.00
84924;BME280;75286;52.218;5.180;2024-03-07T05:14:55;102599.34;;;3.82;99.85
84924;BME280;75286;52.218;5.180;2024-03-07T05:17:20;102606.84;;;3.85;100.00
84924;BME280;75286;52.218;5.180;2024-03-07T05:19:47;102599.63;;;3.77;99.86
84924;BME280;75286;52.218;5.180;2024-03-07T05:22:14;102607.03;;;3.82;99.77
84924;BME280;75286;52.218;5.180;2024-03-07T05:24:44;102606.41;;;3.78;99.92
84924;BME280;75286;52.218;5.180;2024-03-07T05:27:11;102602.19;;;3.77;100.00
84924;BME280;75286;52.218;5.180;2024-03-07T05:29:40;102611.69;;;3.75;100.00
84924;BME280;75286;52.218;5.180;2024-03-07T05:32:26;102606.97;;;3.69;100.00
84924;BME280;75286;52.218;5.180;2024-03-07T05:34:52;102616.00;;;3.74;100.00
84924;BME280;75286;52.218;5.180;2024-03-07T05:37:21;102599.28;;;3.69;100.00
84924;BME280;75286;52.218;5.180;2024-03-07T05:39:50;102600.22;;;3.68;100.00
84924;BME280;75286;52.218;5.180;2024-03-07T05:42:15;102599.47;;;3.66;100.00
84924;BME280;75286;52.218;5.180;2024-03-07T05:44:41;102603.47;;;3.70;100.00
84924;BME280;75286;52.218;5.180;2024-03-07T05:47:07;102609.50;;;3.69;100.00
84924;BME280;75286;52.218;5.180;2024-03-07T05:49:33;102609.50;;;3.69;100.00
84924;BME280;75286;52.218;5.180;2024-03-07T05:51:58;102612.28;;;3.66;100.00
84924;BME280;75286;52.218;5.180;2024-03-07T05:54:23;102603.25;;;3.60;100.00
84924;BME280;75286;52.218;5.180;2024-03-07T05:56:49;102595.84;;;3.56;100.00
84924;BME280;75286;52.218;5.180;2024-03-07T05:59:16;102610.63;;;3.65;100.00
84924;BME280;75286;52.218;5.180;2024-03-07T06:01:42;102596.47;;;3.59;100.00
84924;BME280;75286;52.218;5.180;2024-03-07T06:04:09;102588.34;;;3.53;100.00
84924;BME280;75286;52.218;5.180;2024-03-07T06:06:36;102608.06;;;3.65;100.00
84924;BME280;75286;52.218;5.180;2024-03-07T06:09:04;102596.41;;;3.61;100.00
84924;BME280;75286;52.218;5.180;2024-03-07T06:11:38;102604.06;;;3.61;100.00
84924;BME280;75286;52.218;5.180;2024-03-07T06:14:05;102607.00;;;3.55;100.00
84924;BME280;75286;52.218;5.180;2024-03-07T06:16:33;102606.72;;;3.59;100.00
84924;BME280;75286;52.218;5.180;2024-03-07T06:19:05;102601.16;;;3.53;100.00
84924;BME280;75286;52.218;5.180;2024-03-07T06:21:35;102603.63;;;3.54;100.00
84924;BME280;75286;52.218;5.180;2024-03-07T06:24:01;102611.00;;;3.59;100.00
84924;BME280;75286;52.218;5.180;2024-03-07T06:29:10;102611.38;;;3.53;100.00
84924;BME280;75286;52.218;5.180;2024-03-07T06:31:41;102618.75;;;3.57;100.00
84924;BME280;75286;52.218;5.180;2024-03-07T06:34:07;102612.19;;;3.53;100.00
84924;BME280;75286;52.218;5.180;2024-03-07T06:36:34;102616.50;;;3.53;100.00
84924;BME280;75286;52.218;5.180;2024-03-07T06:38:59;102612.84;;;3.57;100.00
84924;BME280;75286;52.218;5.180;2024-03-07T06:41:25;102612.84;;;3.57;100.00
84924;BME280;75286;52.218;5.180;2024-03-07T06:43:51;102608.66;;;3.56;100.00
84924;BME280;75286;52.218;5.180;2024-03-07T06:46:18;102613.56;;;3.59;100.00
84924;BME280;75286;52.218;5.180;2024-03-07T06:48:45;102606.91;;;3.56;100.00
84924;BME280;75286;52.218;5.180;2024-03-07T06:51:10;102604.97;;;3.60;100.00
84924;BME280;75286;52.218;5.180;2024-03-07T06:53:36;102617.47;;;3.64;100.00
84924;BME280;75286;52.218;5.180;2024-03-07T06:56:01;102612.28;;;3.66;100.00
84924;BME280;75286;52.218;5.180;2024-03-07T06:58:28;102610.84;;;3.62;100.00
84924;BME280;75286;52.218;5.180;2024-03-07T07:00:54;102612.28;;;3.66;100.00
84924;BME280;75286;52.218;5.180;2024-03-07T07:03:22;102624.16;;;3.67;100.00
84924;BME280;75286;52.218;5.180;2024-03-07T07:05:49;102609.72;;;3.66;100.00
84924;BME280;75286;52.218;5.180;2024-03-07T07:08:15;102618.13;;;3.68;100.00
84924;BME280;75286;52.218;5.180;2024-03-07T07:10:41;102612.91;;;3.69;100.00
84924;BME280;75286;52.218;5.180;2024-03-07T07:13:08;102609.81;;;3.64;100.00
84924;BME280;75286;52.218;5.180;2024-03-07T07:15:33;102603.31;;;3.73;100.00
84924;BME280;75286;52.218;5.180;2024-03-07T07:17:59;102610.16;;;3.72;100.00
84924;BME280;75286;52.218;5.180;2024-03-07T07:20:27;102599.19;;;3.70;100.00
84924;BME280;75286;52.218;5.180;2024-03-07T07:22:53;102599.41;;;3.67;100.00
84924;BME280;75286;52.218;5.180;2024-03-07T07:25:19;102593.25;;;3.70;100.00
84924;BME280;75286;52.218;5.180;2024-03-07T07:27:47;102610.50;;;3.81;99.91
84924;BME280;75286;52.218;5.180;2024-03-07T07:30:17;102596.34;;;3.75;100.00
84924;BME280;75286;52.218;5.180;2024-03-07T07:32:44;102601.59;;;3.86;100.00
84924;BME280;75286;52.218;5.180;2024-03-07T07:35:10;102603.91;;;3.91;100.00
84924;BME280;75286;52.218;5.180;2024-03-07T07:37:44;102598.50;;;3.95;99.74
84924;BME280;75286;52.218;5.180;2024-03-07T07:40:18;102599.03;;;4.00;99.62
84924;BME280;75286;52.218;5.180;2024-03-07T07:42:47;102605.19;;;4.10;99.64
84924;BME280;75286;52.218;5.180;2024-03-07T07:45:14;102601.94;;;4.21;98.90
84924;BME280;75286;52.218;5.180;2024-03-07T07:47:41;102593.44;;;4.21;98.71
84924;BME280;75286;52.218;5.180;2024-03-07T07:50:10;102590.91;;;4.33;98.24
84924;BME280;75286;52.218;5.180;2024-03-07T07:52:50;102588.78;;;4.40;98.19
84924;BME280;75286;52.218;5.180;2024-03-07T07:55:17;102595.44;;;4.55;97.17
84924;BME280;75286;52.218;5.180;2024-03-07T07:57:47;102588.41;;;4.59;96.47
84924;BME280;75286;52.218;5.180;2024-03-07T08:00:17;102601.94;;;4.73;96.86
84924;BME280;75286;52.218;5.180;2024-03-07T08:02:56;102589.44;;;4.81;96.04
84924;BME280;75286;52.218;5.180;2024-03-07T08:05:25;102602.97;;;4.96;96.51
84924;BME280;75286;52.218;5.180;2024-03-07T08:07:53;102604.00;;;5.06;95.02
84924;BME280;75286;52.218;5.180;2024-03-07T08:10:20;102603.38;;;5.15;95.92
84924;BME280;75286;52.218;5.180;2024-03-07T08:12:46;102587.78;;;5.18;94.60
84924;BME280;75286;52.218;5.180;2024-03-07T08:15:12;102593.63;;;5.20;94.01
84924;BME280;75286;52.218;5.180;2024-03-07T08:17:44;102593.63;;;5.20;93.69
84924;BME280;75286;52.218;5.180;2024-03-07T08:20:11;102586.44;;;5.13;93.48
84924;BME280;75286;52.218;5.180;2024-03-07T08:22:41;102598.75;;;5.20;92.90
84924;BME280;75286;52.218;5.180;2024-03-07T08:25:13;102601.72;;;5.14;92.95
84924;BME280;75286;52.218;5.180;2024-03-07T08:27:41;102604.91;;;5.18;93.01
84924;BME280;75286;52.218;5.180;2024-03-07T08:30:09;102598.03;;;5.18;93.18
84924;BME280;75286;52.218;5.180;2024-03-07T08:32:42;102600.97;;;5.25;93.37
84924;BME280;75286;52.218;5.180;2024-03-07T08:35:08;102585.50;;;5.14;92.09
84924;BME280;75286;52.218;5.180;2024-03-07T08:37:40;102595.44;;;5.31;92.57
84924;BME280;75286;52.218;5.180;2024-03-07T08:40:07;102595.16;;;5.35;92.13
84924;BME280;75286;52.218;5.180;2024-03-07T08:42:33;102580.44;;;5.37;92.71
84924;BME280;75286;52.218;5.180;2024-03-07T08:45:00;102593.69;;;5.44;92.24
84924;BME280;75286;52.218;5.180;2024-03-07T08:47:26;102591.72;;;5.48;91.38
84924;BME280;75286;52.218;5.180;2024-03-07T08:49:53;102592.66;;;5.47;90.69
84924;BME280;75286;52.218;5.180;2024-03-07T08:52:19;102591.50;;;5.51;91.70
84924;BME280;75286;52.218;5.180;2024-03-07T08:54:44;102586.06;;;5.55;91.36
84924;BME280;75286;52.218;5.180;2024-03-07T08:57:10;102591.47;;;5.63;91.35
84924;BME280;75286;52.218;5.180;2024-03-07T08:59:35;102589.16;;;5.71;91.08
84924;BME280;75286;52.218;5.180;2024-03-07T09:02:01;102588.06;;;5.75;90.67
84924;BME280;75286;52.218;5.180;2024-03-07T09:04:29;102580.34;;;5.75;89.37
84924;BME280;75286;52.218;5.180;2024-03-07T09:06:56;102592.22;;;5.89;89.50
84924;BME280;75286;52.218;5.180;2024-03-07T09:09:21;102590.47;;;5.90;88.13
84924;BME280;75286;52.218;5.180;2024-03-07T09:11:46;102586.06;;;5.92;88.22
84924;BME280;75286;52.218;5.180;2024-03-07T09:14:13;102581.84;;;5.91;88.17
84924;BME280;75286;52.218;5.180;2024-03-07T09:16:38;102576.81;;;5.89;87.97
84924;BME280;75286;52.218;5.180;2024-03-07T09:19:04;102571.56;;;5.91;88.13
84924;BME280;75286;52.218;5.180;2024-03-07T09:21:30;102573.31;;;5.90;88.79
84924;BME280;75286;52.218;5.180;2024-03-07T09:23:55;102572.53;;;6.01;88.20
84924;BME280;75286;52.218;5.180;2024-03-07T09:26:20;102578.22;;;6.17;89.08
84924;BME280;75286;52.218;5.180;2024-03-07T09:28:46;102572.63;;;6.23;87.62
84924;BME280;75286;52.218;5.180;2024-03-07T09:31:14;102561.91;;;6.29;87.08
84924;BME280;75286;52.218;5.180;2024-03-07T09:33:39;102564.41;;;6.42;87.38
84924;BME280;75286;52.218;5.180;2024-03-07T09:36:05;102563.22;;;6.46;86.33
84924;BME280;75286;52.218;5.180;2024-03-07T09:38:32;102563.13;;;6.58;86.86
84924;BME280;75286;52.218;5.180;2024-03-07T09:40:57;102554.63;;;6.69;85.97
84924;BME280;75286;52.218;5.180;2024-03-07T09:43:26;102546.09;;;6.80;85.14
84924;BME280;75286;52.218;5.180;2024-03-07T09:45:54;102545.53;;;6.98;84.27
84924;BME280;75286;52.218;5.180;2024-03-07T09:48:20;102548.78;;;7.12;83.88
84924;BME280;75286;52.218;5.180;2024-03-07T09:50:48;102545.63;;;7.19;80.96
84924;BME280;75286;52.218;5.180;2024-03-07T09:53:16;102534.50;;;7.30;80.99
84924;BME280;75286;52.218;5.180;2024-03-07T09:55:42;102548.41;;;7.38;79.73
84924;BME280;75286;52.218;5.180;2024-03-07T09:58:09;102541.50;;;7.39;80.66
84924;BME280;75286;52.218;5.180;2024-03-07T10:00:37;102541.84;;;7.45;80.98
84924;BME280;75286;52.218;5.180;2024-03-07T10:03:08;102540.06;;;7.57;80.69
84924;BME280;75286;52.218;5.180;2024-03-07T10:05:34;102532.91;;;7.61;79.65
84924;BME280;75286;52.218;5.180;2024-03-07T10:08:00;102542.81;;;7.76;78.71
84924;BME280;75286;52.218;5.180;2024-03-07T10:10:26;102529.75;;;7.89;78.23
84924;BME280;75286;52.218;5.180;2024-03-07T10:12:51;102542.28;;;8.14;74.22
84924;BME280;75286;52.218;5.180;2024-03-07T10:15:27;102532.03;;;8.24;75.89
84924;BME280;75286;52.218;5.180;2024-03-07T10:17:53;102519.84;;;8.26;73.91
84924;BME280;75286;52.218;5.180;2024-03-07T10:20:19;102515.84;;;8.33;71.94
84924;BME280;75286;52.218;5.180;2024-03-07T10:22:48;102534.81;;;8.53;73.17
84924;BME280;75286;52.218;5.180;2024-03-07T10:25:17;102510.13;;;8.50;69.48
84924;BME280;75286;52.218;5.180;2024-03-07T10:27:42;102513.00;;;8.57;70.50
84924;BME280;75286;52.218;5.180;2024-03-07T10:30:09;102518.50;;;8.73;70.62
84924;BME280;75286;52.218;5.180;2024-03-07T10:32:35;102524.94;;;8.88;69.23
84924;BME280;75286;52.218;5.180;2024-03-07T10:35:01;102524.16;;;8.97;68.30
84924;BME280;75286;52.218;5.180;2024-03-07T10:37:28;102510.16;;;8.90;67.17
84924;BME280;75286;52.218;5.180;2024-03-07T10:39:54;102510.84;;;8.92;67.04
84924;BME280;75286;52.218;5.180;2024-03-07T10:42:20;102512.59;;;8.92;67.85
84924;BME280;75286;52.218;5.180;2024-03-07T10:44:51;102507.16;;;8.95;67.95
84924;BME280;75286;52.218;5.180;2024-03-07T10:47:21;102499.63;;;9.13;68.39
84924;BME280;75286;52.218;5.180;2024-03-07T10:50:18;102518.69;;;9.40;66.46
84924;BME280;75286;52.218;5.180;2024-03-07T10:52:58;102508.09;;;9.63;66.21
84924;BME280;75286;52.218;5.180;2024-03-07T10:55:34;102489.72;;;9.85;64.51
84924;BME280;75286;52.218;5.180;2024-03-07T10:58:21;102489.56;;;10.15;64.30
84924;BME280;75286;52.218;5.180;2024-03-07T11:00:55;102498.50;;;10.40;64.59
84924;BME280;75286;52.218;5.180;2024-03-07T11:03:22;102493.66;;;10.64;61.23
84924;BME280;75286;52.218;5.180;2024-03-07T11:05:47;102485.78;;;10.84;61.00
84924;BME280;75286;52.218;5.180;2024-03-07T11:08:14;102487.81;;;10.90;60.69
84924;BME280;75286;52.218;5.180;2024-03-07T11:10:40;102482.06;;;10.96;61.57
84924;BME280;75286;52.218;5.180;2024-03-07T11:13:08;102481.16;;;10.87;60.68
84924;BME280;75286;52.218;5.180;2024-03-07T11:15:40;102471.19;;;10.92;58.99
84924;BME280;75286;52.218;5.180;2024-03-07T11:18:07;102471.38;;;10.81;59.75
84924;BME280;75286;52.218;5.180;2024-03-07T11:20:35;102468.16;;;10.97;57.97
84924;BME280;75286;52.218;5.180;2024-03-07T11:23:00;102472.19;;;11.09;57.89
84924;BME280;75286;52.218;5.180;2024-03-07T11:25:28;102463.69;;;11.17;57.88
84924;BME280;75286;52.218;5.180;2024-03-07T11:27:59;102477.22;;;11.28;58.48
84924;BME280;75286;52.218;5.180;2024-03-07T11:30:25;102457.16;;;11.30;57.89
84924;BME280;75286;52.218;5.180;2024-03-07T11:32:52;102455.41;;;11.31;57.52
84924;BME280;75286;52.218;5.180;2024-03-07T11:35:22;102451.41;;;11.36;57.20
84924;BME280;75286;52.218;5.180;2024-03-07T11:37:58;102449.41;;;11.48;58.30
84924;BME280;75286;52.218;5.180;2024-03-07T11:42:54;102467.84;;;11.63;57.23
84924;BME280;75286;52.218;5.180;2024-03-07T11:45:40;102458.94;;;11.65;56.41
84924;BME280;75286;52.218;5.180;2024-03-07T11:48:10;102449.75;;;11.71;57.29
84924;BME280;75286;52.218;5.180;2024-03-07T11:50:36;102462.47;;;11.82;56.96
84924;BME280;75286;52.218;5.180;2024-03-07T11:53:03;102460.56;;;11.84;56.42
84924;BME280;75286;52.218;5.180;2024-03-07T11:55:32;102447.50;;;11.93;56.14
84924;BME280;75286;52.218;5.180;2024-03-07T11:58:17;102437.59;;;12.15;55.83
84924;BME280;75286;52.218;5.180;2024-03-07T12:00:44;102434.81;;;12.08;55.16
84924;BME280;75286;52.218;5.180;2024-03-07T12:03:12;102427.44;;;11.95;56.54
84924;BME280;75286;52.218;5.180;2024-03-07T12:05:39;102425.34;;;11.99;56.74
84924;BME280;75286;52.218;5.180;2024-03-07T12:08:05;102416.25;;;11.95;56.05
84924;BME280;75286;52.218;5.180;2024-03-07T12:10:31;102412.56;;;11.98;55.82
84924;BME280;75286;52.218;5.180;2024-03-07T12:12:56;102413.19;;;12.00;56.78
84924;BME280;75286;52.218;5.180;2024-03-07T12:15:23;102410.94;;;12.05;56.34
84924;BME280;75286;52.218;5.180;2024-03-07T12:17:50;102402.81;;;11.91;54.66
84924;BME280;75286;52.218;5.180;2024-03-07T12:20:16;102403.72;;;12.16;54.06
84924;BME280;75286;52.218;5.180;2024-03-07T12:22:57;102412.56;;;12.31;54.53
84924;BME280;75286;52.218;5.180;2024-03-07T12:25:23;102393.78;;;12.37;54.35
84924;BME280;75286;52.218;5.180;2024-03-07T12:28:06;102390.41;;;12.45;53.93
84924;BME280;75286;52.218;5.180;2024-03-07T12:30:50;102376.78;;;12.43;53.88
84924;BME280;75286;52.218;5.180;2024-03-07T12:33:17;102371.31;;;12.54;54.30
84924;BME280;75286;52.218;5.180;2024-03-07T12:35:50;102376.06;;;12.75;53.26
84924;BME280;75286;52.218;5.180;2024-03-07T12:38:18;102365.00;;;12.65;53.05
84924;BME280;75286;52.218;5.180;2024-03-07T12:40:44;102353.66;;;12.66;54.37
84924;BME280;75286;52.218;5.180;2024-03-07T12:43:18;102372.19;;;13.03;54.02
84924;BME280;75286;52.218;5.180;2024-03-07T12:45:47;102354.38;;;13.25;52.76
84924;BME280;75286;52.218;5.180;2024-03-07T12:48:13;102353.03;;;13.61;52.19
84924;BME280;75286;52.218;5.180;2024-03-07T12:50:40;102340.38;;;13.58;51.15
84924;BME280;75286;52.218;5.180;2024-03-07T12:53:06;102339.34;;;13.83;51.36
84924;BME280;75286;52.218;5.180;2024-03-07T12:55:39;102346.66;;;13.80;50.41
84924;BME280;75286;52.218;5.180;2024-03-07T12:58:07;102340.41;;;14.05;51.00
84924;BME280;75286;52.218;5.180;2024-03-07T13:00:35;102332.03;;;14.18;48.30
84924;BME280;75286;52.218;5.180;2024-03-07T13:03:00;102317.97;;;14.35;49.91